sensor_id;sensor_type;location;lat;lon;timestamp;P1;durP1;ratioP1;P2;durP2;ratioP2
20381;SDS011;10350;51.280;12.400;2023-03-17T00:00:31;5.90;;;4.00;;
20381;SDS011;10350;51.280;12.400;2023-03-17T00:02:58;7.15;;;3.70;;
20381;SDS011;10350;51.280;12.400;2023-03-17T00:05:25;9.52;;;3.72;;
20381;SDS011;10350;51.280;12.400;2023-03-17T00:07:52;6.45;;;3.92;;
20381;SDS011;10350;51.280;12.400;2023-03-17T00:10:22;6.75;;;3.70;;
20381;SDS011;10350;51.280;12.400;2023-03-17T00:12:49;7.15;;;4.07;;
20381;SDS011;10350;51.280;12.400;2023-03-17T00:15:17;6.45;;;4.28;;
20381;SDS011;10350;51.280;12.400;2023-03-17T00:17:44;5.45;;;3.80;;
20381;SDS011;10350;51.280;12.400;2023-03-17T00:20:20;9.00;;;3.78;;
20381;SDS011;10350;51.280;12.400;2023-03-17T00:22:47;6.85;;;3.95;;
20381;SDS011;10350;51.280;12.400;2023-03-17T00:25:23;6.63;;;4.45;;
20381;SDS011;10350;51.280;12.400;2023-03-17T00:27:51;7.13;;;3.65;;
20381;SDS011;10350;51.280;12.400;2023-03-17T00:30:17;5.25;;;4.22;;
20381;SDS011;10350;51.280;12.400;2023-03-17T00:32:43;6.80;;;3.72;;
20381;SDS011;10350;51.280;12.400;2023-03-17T00:35:16;7.38;;;3.95;;
20381;SDS011;10350;51.280;12.400;2023-03-17T00:37:43;7.00;;;3.33;;
20381;SDS011;10350;51.280;12.400;2023-03-17T00:40:14;6.50;;;3.72;;
20381;SDS011;10350;51.280;12.400;2023-03-17T00:42:40;6.78;;;4.03;;
20381;SDS011;10350;51.280;12.400;2023-03-17T00:45:06;5.60;;;3.63;;
20381;SDS011;10350;51.280;12.400;2023-03-17T00:47:32;6.15;;;3.60;;
20381;SDS011;10350;51.280;12.400;2023-03-17T00:49:59;8.70;;;3.40;;
20381;SDS011;10350;51.280;12.400;2023-03-17T00:52:25;5.80;;;3.30;;
20381;SDS011;10350;51.280;12.400;2023-03-17T00:54:51;7.05;;;3.33;;
20381;SDS011;10350;51.280;12.400;2023-03-17T00:57:17;7.35;;;3.00;;
20381;SDS011;10350;51.280;12.400;2023-03-17T00:59:43;6.07;;;3.70;;
20381;SDS011;10350;51.280;12.400;2023-03-17T01:02:12;6.40;;;3.90;;
20381;SDS011;10350;51.280;12.400;2023-03-17T01:04:39;5.93;;;3.33;;
20381;SDS011;10350;51.280;12.400;2023-03-17T01:07:05;6.82;;;3.75;;
20381;SDS011;10350;51.280;12.400;2023-03-17T01:09:32;6.80;;;3.67;;
20381;SDS011;10350;51.280;12.400;2023-03-17T01:11:58;4.95;;;3.33;;
20381;SDS011;10350;51.280;12.400;2023-03-17T01:14:25;7.40;;;3.60;;
20381;SDS011;10350;51.280;12.400;2023-03-17T01:16:51;7.30;;;3.88;;
20381;SDS011;10350;51.280;12.400;2023-03-17T01:19:19;7.72;;;3.25;;
20381;SDS011;10350;51.280;12.400;2023-03-17T01:21:45;7.28;;;3.22;;
20381;SDS011;10350;51.280;12.400;2023-03-17T01:24:12;5.05;;;3.15;;
20381;SDS011;10350;51.280;12.400;2023-03-17T01:26:38;8.30;;;3.70;;
20381;SDS011;10350;51.280;12.400;2023-03-17T01:29:04;4.68;;;3.25;;
20381;SDS011;10350;51.280;12.400;2023-03-17T01:31:31;4.85;;;3.03;;
20381;SDS011;10350;51.280;12.400;2023-03-17T01:33:57;8.20;;;3.58;;
20381;SDS011;10350;51.280;12.400;2023-03-17T01:36:24;4.22;;;3.33;;
20381;SDS011;10350;51.280;12.400;2023-03-17T01:38:50;6.40;;;3.15;;
20381;SDS011;10350;51.280;12.400;2023-03-17T01:41:17;4.93;;;2.95;;
20381;SDS011;10350;51.280;12.400;2023-03-17T01:43:43;5.10;;;2.95;;
20381;SDS011;10350;51.280;12.400;2023-03-17T01:48:45;5.28;;;3.60;;
20381;SDS011;10350;51.280;12.400;2023-03-17T01:51:12;4.18;;;3.42;;
20381;SDS011;10350;51.280;12.400;2023-03-17T01:53:40;6.05;;;3.22;;
20381;SDS011;10350;51.280;12.400;2023-03-17T01:56:06;6.90;;;3.47;;
20381;SDS011;10350;51.280;12.400;2023-03-17T01:58:33;7.07;;;3.70;;
20381;SDS011;10350;51.280;12.400;2023-03-17T02:00:59;4.28;;;3.00;;
20381;SDS011;10350;51.280;12.400;2023-03-17T02:03:25;3.78;;;2.97;;
20381;SDS011;10350;51.280;12.400;2023-03-17T02:05:52;4.22;;;3.22;;
20381;SDS011;10350;51.280;12.400;2023-03-17T02:08:18;7.88;;;3.85;;
20381;SDS011;10350;51.280;12.400;2023-03-17T02:10:45;6.88;;;2.65;;
20381;SDS011;10350;51.280;12.400;2023-03-17T02:15:40;4.38;;;2.97;;
20381;SDS011;10350;51.280;12.400;2023-03-17T02:18:07;3.38;;;2.80;;
20381;SDS011;10350;51.280;12.400;2023-03-17T02:22:59;4.00;;;3.08;;
20381;SDS011;10350;51.280;12.400;2023-03-17T02:25:27;4.38;;;3.13;;
20381;SDS011;10350;51.280;12.400;2023-03-17T02:27:55;4.88;;;2.78;;
20381;SDS011;10350;51.280;12.400;2023-03-17T02:30:22;6.10;;;2.70;;
20381;SDS011;10350;51.280;12.400;2023-03-17T02:32:48;4.50;;;2.95;;
20381;SDS011;10350;51.280;12.400;2023-03-17T02:35:15;6.68;;;3.20;;
20381;SDS011;10350;51.280;12.400;2023-03-17T02:37:41;4.05;;;2.75;;
20381;SDS011;10350;51.280;12.400;2023-03-17T02:40:08;4.25;;;3.25;;
20381;SDS011;10350;51.280;12.400;2023-03-17T02:42:35;6.65;;;3.22;;
20381;SDS011;10350;51.280;12.400;2023-03-17T02:45:03;5.25;;;3.38;;
20381;SDS011;10350;51.280;12.400;2023-03-17T02:47:30;5.43;;;3.35;;
20381;SDS011;10350;51.280;12.400;2023-03-17T02:49:56;4.43;;;3.08;;
20381;SDS011;10350;51.280;12.400;2023-03-17T02:52:22;6.93;;;2.75;;
20381;SDS011;10350;51.280;12.400;2023-03-17T02:54:49;4.20;;;2.80;;
20381;SDS011;10350;51.280;12.400;2023-03-17T02:57:15;6.50;;;2.85;;
20381;SDS011;10350;51.280;12.400;2023-03-17T02:59:41;5.32;;;2.83;;
20381;SDS011;10350;51.280;12.400;2023-03-17T03:02:07;5.28;;;2.78;;
20381;SDS011;10350;51.280;12.400;2023-03-17T03:04:33;3.80;;;2.80;;
20381;SDS011;10350;51.280;12.400;2023-03-17T03:06:59;5.90;;;3.00;;
20381;SDS011;10350;51.280;12.400;2023-03-17T03:09:25;3.70;;;2.58;;
20381;SDS011;10350;51.280;12.400;2023-03-17T03:11:52;5.57;;;2.70;;
20381;SDS011;10350;51.280;12.400;2023-03-17T03:14:18;4.57;;;3.03;;
20381;SDS011;10350;51.280;12.400;2023-03-17T03:16:44;4.55;;;3.00;;
20381;SDS011;10350;51.280;12.400;2023-03-17T03:19:10;4.13;;;3.10;;
20381;SDS011;10350;51.280;12.400;2023-03-17T03:21:36;5.25;;;2.78;;
20381;SDS011;10350;51.280;12.400;2023-03-17T03:24:03;3.22;;;2.80;;
20381;SDS011;10350;51.280;12.400;2023-03-17T03:26:29;4.75;;;3.42;;
20381;SDS011;10350;51.280;12.400;2023-03-17T03:28:55;4.93;;;2.60;;
20381;SDS011;10350;51.280;12.400;2023-03-17T03:31:22;4.38;;;2.80;;
20381;SDS011;10350;51.280;12.400;2023-03-17T03:33:48;4.45;;;2.65;;
20381;SDS011;10350;51.280;12.400;2023-03-17T03:36:14;5.88;;;2.67;;
20381;SDS011;10350;51.280;12.400;2023-03-17T03:38:40;3.55;;;2.30;;
20381;SDS011;10350;51.280;12.400;2023-03-17T03:41:06;3.28;;;2.70;;
20381;SDS011;10350;51.280;12.400;2023-03-17T03:43:33;4.18;;;2.40;;
20381;SDS011;10350;51.280;12.400;2023-03-17T03:45:59;5.05;;;2.70;;
20381;SDS011;10350;51.280;12.400;2023-03-17T03:48:25;3.55;;;2.40;;
20381;SDS011;10350;51.280;12.400;2023-03-17T03:50:55;3.45;;;2.42;;
20381;SDS011;10350;51.280;12.400;2023-03-17T03:53:21;3.72;;;2.80;;
20381;SDS011;10350;51.280;12.400;2023-03-17T03:55:47;4.20;;;2.90;;
20381;SDS011;10350;51.280;12.400;2023-03-17T03:58:13;3.67;;;2.63;;
20381;SDS011;10350;51.280;12.400;2023-03-17T04:00:39;3.67;;;2.95;;
20381;SDS011;10350;51.280;12.400;2023-03-17T04:03:06;6.35;;;2.50;;
20381;SDS011;10350;51.280;12.400;2023-03-17T04:05:32;4.88;;;2.60;;
20381;SDS011;10350;51.280;12.400;2023-03-17T04:07:58;2.67;;;2.42;;
20381;SDS011;10350;51.280;12.400;2023-03-17T04:10:24;4.47;;;2.70;;
20381;SDS011;10350;51.280;12.400;2023-03-17T04:12:50;5.60;;;2.75;;
20381;SDS011;10350;51.280;12.400;2023-03-17T04:15:17;3.47;;;2.17;;
20381;SDS011;10350;51.280;12.400;2023-03-17T04:17:43;3.58;;;2.45;;
20381;SDS011;10350;51.280;12.400;2023-03-17T04:20:10;2.67;;;2.22;;
20381;SDS011;10350;51.280;12.400;2023-03-17T04:22:37;4.75;;;2.42;;
20381;SDS011;10350;51.280;12.400;2023-03-17T04:25:03;3.03;;;2.67;;
20381;SDS011;10350;51.280;12.400;2023-03-17T04:27:29;4.13;;;2.50;;
20381;SDS011;10350;51.280;12.400;2023-03-17T04:29:56;7.05;;;2.53;;
20381;SDS011;10350;51.280;12.400;2023-03-17T04:32:22;3.38;;;2.47;;
20381;SDS011;10350;51.280;12.400;2023-03-17T04:34:48;4.30;;;2.55;;
20381;SDS011;10350;51.280;12.400;2023-03-17T04:37:14;4.22;;;2.53;;
20381;SDS011;10350;51.280;12.400;2023-03-17T04:39:40;5.65;;;2.50;;
20381;SDS011;10350;51.280;12.400;2023-03-17T04:42:06;4.20;;;2.70;;
20381;SDS011;10350;51.280;12.400;2023-03-17T04:44:32;3.47;;;2.30;;
20381;SDS011;10350;51.280;12.400;2023-03-17T04:46:59;3.17;;;2.55;;
20381;SDS011;10350;51.280;12.400;2023-03-17T04:49:25;2.97;;;2.67;;
20381;SDS011;10350;51.280;12.400;2023-03-17T04:51:51;3.22;;;2.72;;
20381;SDS011;10350;51.280;12.400;2023-03-17T04:54:17;4.40;;;2.40;;
20381;SDS011;10350;51.280;12.400;2023-03-17T04:56:43;3.60;;;2.45;;
20381;SDS011;10350;51.280;12.400;2023-03-17T04:59:09;3.40;;;2.47;;
20381;SDS011;10350;51.280;12.400;2023-03-17T05:01:35;2.55;;;2.33;;
20381;SDS011;10350;51.280;12.400;2023-03-17T05:04:01;2.60;;;2.40;;
20381;SDS011;10350;51.280;12.400;2023-03-17T05:06:28;4.57;;;2.80;;
20381;SDS011;10350;51.280;12.400;2023-03-17T05:08:54;3.40;;;2.55;;
20381;SDS011;10350;51.280;12.400;2023-03-17T05:11:20;3.90;;;2.50;;
20381;SDS011;10350;51.280;12.400;2023-03-17T05:13:46;4.60;;;2.75;;
20381;SDS011;10350;51.280;12.400;2023-03-17T05:16:12;2.47;;;2.10;;
20381;SDS011;10350;51.280;12.400;2023-03-17T05:18:38;3.28;;;2.70;;
20381;SDS011;10350;51.280;12.400;2023-03-17T05:21:04;8.80;;;3.03;;
20381;SDS011;10350;51.280;12.400;2023-03-17T05:23:32;3.75;;;2.97;;
20381;SDS011;10350;51.280;12.400;2023-03-17T05:25:58;3.42;;;2.70;;
20381;SDS011;10350;51.280;12.400;2023-03-17T05:28:24;4.78;;;3.00;;
20381;SDS011;10350;51.280;12.400;2023-03-17T05:30:50;2.85;;;2.30;;
20381;SDS011;10350;51.280;12.400;2023-03-17T05:33:17;4.50;;;3.10;;
20381;SDS011;10350;51.280;12.400;2023-03-17T05:35:44;8.38;;;2.70;;
20381;SDS011;10350;51.280;12.400;2023-03-17T05:38:10;2.60;;;2.40;;
20381;SDS011;10350;51.280;12.400;2023-03-17T05:40:36;2.88;;;2.60;;
20381;SDS011;10350;51.280;12.400;2023-03-17T05:43:03;6.00;;;3.25;;
20381;SDS011;10350;51.280;12.400;2023-03-17T05:45:29;7.45;;;3.45;;
20381;SDS011;10350;51.280;12.400;2023-03-17T05:47:55;4.40;;;3.13;;
20381;SDS011;10350;51.280;12.400;2023-03-17T05:50:21;4.35;;;3.00;;
20381;SDS011;10350;51.280;12.400;2023-03-17T05:52:47;4.88;;;3.60;;
20381;SDS011;10350;51.280;12.400;2023-03-17T05:55:15;6.95;;;3.08;;
20381;SDS011;10350;51.280;12.400;2023-03-17T05:57:41;5.07;;;3.05;;
20381;SDS011;10350;51.280;12.400;2023-03-17T06:00:08;3.20;;;2.90;;
20381;SDS011;10350;51.280;12.400;2023-03-17T06:02:34;4.07;;;2.70;;
20381;SDS011;10350;51.280;12.400;2023-03-17T06:05:00;5.57;;;2.85;;
20381;SDS011;10350;51.280;12.400;2023-03-17T06:07:26;3.08;;;2.38;;
20381;SDS011;10350;51.280;12.400;2023-03-17T06:09:52;3.42;;;2.70;;
20381;SDS011;10350;51.280;12.400;2023-03-17T06:12:19;7.65;;;2.78;;
20381;SDS011;10350;51.280;12.400;2023-03-17T06:14:45;4.28;;;2.85;;
20381;SDS011;10350;51.280;12.400;2023-03-17T06:17:11;6.18;;;2.50;;
20381;SDS011;10350;51.280;12.400;2023-03-17T06:19:38;4.72;;;2.65;;
20381;SDS011;10350;51.280;12.400;2023-03-17T06:22:04;5.55;;;2.47;;
20381;SDS011;10350;51.280;12.400;2023-03-17T06:24:31;7.88;;;3.03;;
20381;SDS011;10350;51.280;12.400;2023-03-17T06:26:57;6.85;;;3.45;;
20381;SDS011;10350;51.280;12.400;2023-03-17T06:29:23;3.00;;;2.72;;
20381;SDS011;10350;51.280;12.400;2023-03-17T06:31:49;3.35;;;2.72;;
20381;SDS011;10350;51.280;12.400;2023-03-17T06:34:16;3.58;;;3.00;;
20381;SDS011;10350;51.280;12.400;2023-03-17T06:36:42;8.07;;;2.90;;
20381;SDS011;10350;51.280;12.400;2023-03-17T06:39:09;5.70;;;3.10;;
20381;SDS011;10350;51.280;12.400;2023-03-17T06:41:35;7.25;;;3.30;;
20381;SDS011;10350;51.280;12.400;2023-03-17T06:44:01;6.57;;;5.03;;
20381;SDS011;10350;51.280;12.400;2023-03-17T06:46:29;8.75;;;3.13;;
20381;SDS011;10350;51.280;12.400;2023-03-17T06:48:55;4.25;;;3.35;;
20381;SDS011;10350;51.280;12.400;2023-03-17T06:51:21;5.55;;;4.10;;
20381;SDS011;10350;51.280;12.400;2023-03-17T06:53:47;4.35;;;2.88;;
20381;SDS011;10350;51.280;12.400;2023-03-17T06:56:13;4.05;;;3.10;;
20381;SDS011;10350;51.280;12.400;2023-03-17T06:58:39;3.58;;;2.90;;
20381;SDS011;10350;51.280;12.400;2023-03-17T07:01:05;3.20;;;2.78;;
20381;SDS011;10350;51.280;12.400;2023-03-17T07:03:31;3.75;;;3.10;;
20381;SDS011;10350;51.280;12.400;2023-03-17T07:05:58;2.92;;;2.72;;
20381;SDS011;10350;51.280;12.400;2023-03-17T07:08:24;7.47;;;3.17;;
20381;SDS011;10350;51.280;12.400;2023-03-17T07:10:53;4.57;;;2.85;;
20381;SDS011;10350;51.280;12.400;2023-03-17T07:13:20;5.38;;;3.75;;
20381;SDS011;10350;51.280;12.400;2023-03-17T07:15:46;5.22;;;4.38;;
20381;SDS011;10350;51.280;12.400;2023-03-17T07:18:12;5.47;;;3.28;;
20381;SDS011;10350;51.280;12.400;2023-03-17T07:20:39;3.88;;;3.58;;
20381;SDS011;10350;51.280;12.400;2023-03-17T07:23:05;3.60;;;3.30;;
20381;SDS011;10350;51.280;12.400;2023-03-17T07:25:31;4.82;;;3.40;;
20381;SDS011;10350;51.280;12.400;2023-03-17T07:28:00;4.85;;;3.30;;
20381;SDS011;10350;51.280;12.400;2023-03-17T07:30:27;4.43;;;3.65;;
20381;SDS011;10350;51.280;12.400;2023-03-17T07:32:53;6.45;;;3.90;;
20381;SDS011;10350;51.280;12.400;2023-03-17T07:35:19;4.97;;;3.83;;
20381;SDS011;10350;51.280;12.400;2023-03-17T07:37:45;8.05;;;3.80;;
20381;SDS011;10350;51.280;12.400;2023-03-17T07:40:11;7.50;;;3.50;;
20381;SDS011;10350;51.280;12.400;2023-03-17T07:42:37;5.65;;;3.53;;
20381;SDS011;10350;51.280;12.400;2023-03-17T07:45:03;4.38;;;3.92;;
20381;SDS011;10350;51.280;12.400;2023-03-17T07:47:30;7.22;;;3.80;;
20381;SDS011;10350;51.280;12.400;2023-03-17T07:49:56;3.88;;;3.58;;
20381;SDS011;10350;51.280;12.400;2023-03-17T07:52:22;5.50;;;3.78;;
20381;SDS011;10350;51.280;12.400;2023-03-17T07:54:48;7.60;;;3.85;;
20381;SDS011;10350;51.280;12.400;2023-03-17T07:57:16;4.32;;;3.90;;
20381;SDS011;10350;51.280;12.400;2023-03-17T07:59:42;4.43;;;3.97;;
20381;SDS011;10350;51.280;12.400;2023-03-17T08:02:15;4.95;;;4.10;;
20381;SDS011;10350;51.280;12.400;2023-03-17T08:04:41;5.18;;;3.70;;
20381;SDS011;10350;51.280;12.400;2023-03-17T08:07:07;5.03;;;3.88;;
20381;SDS011;10350;51.280;12.400;2023-03-17T08:09:34;5.43;;;4.20;;
20381;SDS011;10350;51.280;12.400;2023-03-17T08:12:01;5.95;;;4.18;;
20381;SDS011;10350;51.280;12.400;2023-03-17T08:14:27;4.00;;;3.70;;
20381;SDS011;10350;51.280;12.400;2023-03-17T08:16:53;5.00;;;4.53;;
20381;SDS011;10350;51.280;12.400;2023-03-17T08:19:20;4.55;;;3.78;;
20381;SDS011;10350;51.280;12.400;2023-03-17T08:21:46;7.68;;;4.32;;
20381;SDS011;10350;51.280;12.400;2023-03-17T08:24:12;7.43;;;4.22;;
20381;SDS011;10350;51.280;12.400;2023-03-17T08:26:39;4.55;;;3.92;;
20381;SDS011;10350;51.280;12.400;2023-03-17T08:29:05;4.63;;;3.97;;
20381;SDS011;10350;51.280;12.400;2023-03-17T08:31:32;4.85;;;4.38;;
20381;SDS011;10350;51.280;12.400;2023-03-17T08:33:58;4.93;;;4.25;;
20381;SDS011;10350;51.280;12.400;2023-03-17T08:36:25;6.25;;;4.22;;
20381;SDS011;10350;51.280;12.400;2023-03-17T08:38:51;5.40;;;3.83;;
20381;SDS011;10350;51.280;12.400;2023-03-17T08:41:18;4.38;;;3.63;;
20381;SDS011;10350;51.280;12.400;2023-03-17T08:43:45;3.88;;;3.40;;
20381;SDS011;10350;51.280;12.400;2023-03-17T08:46:25;3.33;;;3.03;;
20381;SDS011;10350;51.280;12.400;2023-03-17T08:48:52;4.03;;;3.72;;
20381;SDS011;10350;51.280;12.400;2023-03-17T08:51:20;4.15;;;3.47;;
20381;SDS011;10350;51.280;12.400;2023-03-17T08:53:46;4.20;;;3.80;;
20381;SDS011;10350;51.280;12.400;2023-03-17T08:56:13;4.47;;;3.38;;
20381;SDS011;10350;51.280;12.400;2023-03-17T08:58:39;4.32;;;3.92;;
20381;SDS011;10350;51.280;12.400;2023-03-17T09:01:06;5.40;;;3.47;;
20381;SDS011;10350;51.280;12.400;2023-03-17T09:06:00;4.38;;;4.07;;
20381;SDS011;10350;51.280;12.400;2023-03-17T09:08:29;5.10;;;3.55;;
20381;SDS011;10350;51.280;12.400;2023-03-17T09:10:56;5.13;;;3.17;;
20381;SDS011;10350;51.280;12.400;2023-03-17T09:13:22;4.32;;;3.70;;
20381;SDS011;10350;51.280;12.400;2023-03-17T09:15:48;5.40;;;4.07;;
20381;SDS011;10350;51.280;12.400;2023-03-17T09:18:14;4.38;;;3.67;;
20381;SDS011;10350;51.280;12.400;2023-03-17T09:20:41;4.25;;;3.90;;
20381;SDS011;10350;51.280;12.400;2023-03-17T09:23:07;5.05;;;4.65;;
20381;SDS011;10350;51.280;12.400;2023-03-17T09:25:37;4.40;;;4.07;;
20381;SDS011;10350;51.280;12.400;2023-03-17T09:28:04;4.28;;;3.97;;
20381;SDS011;10350;51.280;12.400;2023-03-17T09:30:31;5.95;;;3.95;;
20381;SDS011;10350;51.280;12.400;2023-03-17T09:32:57;6.20;;;5.43;;
20381;SDS011;10350;51.280;12.400;2023-03-17T09:35:24;4.72;;;4.28;;
20381;SDS011;10350;51.280;12.400;2023-03-17T09:37:52;4.60;;;4.25;;
20381;SDS011;10350;51.280;12.400;2023-03-17T09:40:18;5.88;;;4.50;;
20381;SDS011;10350;51.280;12.400;2023-03-17T09:42:56;4.32;;;4.13;;
20381;SDS011;10350;51.280;12.400;2023-03-17T09:47:59;8.20;;;3.85;;
20381;SDS011;10350;51.280;12.400;2023-03-17T09:53:00;4.30;;;4.00;;
20381;SDS011;10350;51.280;12.400;2023-03-17T09:55:29;4.10;;;3.88;;
20381;SDS011;10350;51.280;12.400;2023-03-17T09:57:56;4.43;;;4.00;;
20381;SDS011;10350;51.280;12.400;2023-03-17T10:00:25;6.70;;;4.15;;
20381;SDS011;10350;51.280;12.400;2023-03-17T10:02:53;5.20;;;4.60;;
20381;SDS011;10350;51.280;12.400;2023-03-17T10:05:20;5.32;;;4.45;;
20381;SDS011;10350;51.280;12.400;2023-03-17T10:10:14;4.43;;;4.03;;
20381;SDS011;10350;51.280;12.400;2023-03-17T10:15:13;4.80;;;3.33;;
20381;SDS011;10350;51.280;12.400;2023-03-17T10:17:41;4.00;;;3.70;;
20381;SDS011;10350;51.280;12.400;2023-03-17T10:22:37;3.63;;;3.33;;
20381;SDS011;10350;51.280;12.400;2023-03-17T10:25:15;3.80;;;3.50;;
20381;SDS011;10350;51.280;12.400;2023-03-17T10:27:43;4.95;;;3.30;;
20381;SDS011;10350;51.280;12.400;2023-03-17T10:30:16;4.90;;;4.50;;
20381;SDS011;10350;51.280;12.400;2023-03-17T10:32:43;5.18;;;3.60;;
20381;SDS011;10350;51.280;12.400;2023-03-17T10:35:10;5.50;;;3.30;;
20381;SDS011;10350;51.280;12.400;2023-03-17T10:37:37;3.70;;;3.40;;
20381;SDS011;10350;51.280;12.400;2023-03-17T10:40:05;3.73;;;3.53;;
20381;SDS011;10350;51.280;12.400;2023-03-17T10:42:43;9.35;;;4.40;;
20381;SDS011;10350;51.280;12.400;2023-03-17T10:45:15;10.73;;;3.75;;
20381;SDS011;10350;51.280;12.400;2023-03-17T10:47:43;4.40;;;4.00;;
20381;SDS011;10350;51.280;12.400;2023-03-17T10:52:41;4.10;;;3.72;;
20381;SDS011;10350;51.280;12.400;2023-03-17T10:55:07;5.38;;;4.40;;
20381;SDS011;10350;51.280;12.400;2023-03-17T10:57:37;5.07;;;4.32;;
20381;SDS011;10350;51.280;12.400;2023-03-17T11:00:13;4.95;;;4.20;;
20381;SDS011;10350;51.280;12.400;2023-03-17T11:05:24;4.15;;;3.83;;
20381;SDS011;10350;51.280;12.400;2023-03-17T11:08:29;6.07;;;3.92;;
20381;SDS011;10350;51.280;12.400;2023-03-17T11:10:44;4.03;;;3.72;;
20381;SDS011;10350;51.280;12.400;2023-03-17T11:13:15;4.85;;;4.45;;
20381;SDS011;10350;51.280;12.400;2023-03-17T11:15:57;4.03;;;3.72;;
20381;SDS011;10350;51.280;12.400;2023-03-17T11:18:29;3.77;;;3.53;;
20381;SDS011;10350;51.280;12.400;2023-03-17T11:21:10;3.85;;;3.50;;
20381;SDS011;10350;51.280;12.400;2023-03-17T11:23:43;3.88;;;3.45;;
20381;SDS011;10350;51.280;12.400;2023-03-17T11:26:24;3.90;;;3.70;;
20381;SDS011;10350;51.280;12.400;2023-03-17T11:28:59;3.70;;;3.40;;
20381;SDS011;10350;51.280;12.400;2023-03-17T11:31:30;3.50;;;3.22;;
20381;SDS011;10350;51.280;12.400;2023-03-17T11:39:09;4.00;;;3.70;;
20381;SDS011;10350;51.280;12.400;2023-03-17T11:49:45;4.85;;;4.53;;
20381;SDS011;10350;51.280;12.400;2023-03-17T11:52:27;4.57;;;4.28;;
20381;SDS011;10350;51.280;12.400;2023-03-17T11:55:01;4.93;;;3.85;;
20381;SDS011;10350;51.280;12.400;2023-03-17T11:57:52;4.32;;;4.03;;
20381;SDS011;10350;51.280;12.400;2023-03-17T12:02:57;4.03;;;3.75;;
20381;SDS011;10350;51.280;12.400;2023-03-17T12:05:25;4.22;;;3.92;;
20381;SDS011;10350;51.280;12.400;2023-03-17T12:07:53;4.30;;;4.00;;
20381;SDS011;10350;51.280;12.400;2023-03-17T12:10:25;4.45;;;3.90;;
20381;SDS011;10350;51.280;12.400;2023-03-17T12:12:54;4.20;;;3.90;;
20381;SDS011;10350;51.280;12.400;2023-03-17T12:15:35;4.15;;;3.95;;
20381;SDS011;10350;51.280;12.400;2023-03-17T12:18:09;4.18;;;3.83;;
20381;SDS011;10350;51.280;12.400;2023-03-17T12:26:11;5.80;;;3.75;;
20381;SDS011;10350;51.280;12.400;2023-03-17T12:31:36;3.78;;;3.58;;
20381;SDS011;10350;51.280;12.400;2023-03-17T12:36:42;4.35;;;4.10;;
20381;SDS011;10350;51.280;12.400;2023-03-17T12:39:10;4.55;;;4.25;;
20381;SDS011;10350;51.280;12.400;2023-03-17T12:41:46;4.13;;;3.88;;
20381;SDS011;10350;51.280;12.400;2023-03-17T12:44:18;4.90;;;4.38;;
20381;SDS011;10350;51.280;12.400;2023-03-17T12:49:23;10.63;;;4.85;;
20381;SDS011;10350;51.280;12.400;2023-03-17T12:52:15;4.35;;;4.05;;
20381;SDS011;10350;51.280;12.400;2023-03-17T12:54:44;4.25;;;3.85;;
20381;SDS011;10350;51.280;12.400;2023-03-17T12:57:19;4.07;;;3.78;;
20381;SDS011;10350;51.280;12.400;2023-03-17T12:59:49;5.75;;;3.60;;
20381;SDS011;10350;51.280;12.400;2023-03-17T13:04:57;3.88;;;3.58;;
20381;SDS011;10350;51.280;12.400;2023-03-17T13:10:12;4.15;;;3.60;;
20381;SDS011;10350;51.280;12.400;2023-03-17T13:20:41;4.68;;;3.30;;
20381;SDS011;10350;51.280;12.400;2023-03-17T13:38:11;4.68;;;3.55;;
20381;SDS011;10350;51.280;12.400;2023-03-17T13:46:17;3.92;;;3.63;;
20381;SDS011;10350;51.280;12.400;2023-03-17T13:48:43;3.45;;;3.25;;
20381;SDS011;10350;51.280;12.400;2023-03-17T13:53:52;3.83;;;3.53;;
20381;SDS011;10350;51.280;12.400;2023-03-17T13:56:26;4.40;;;4.10;;
20381;SDS011;10350;51.280;12.400;2023-03-17T14:01:42;4.13;;;3.65;;
20381;SDS011;10350;51.280;12.400;2023-03-17T14:04:21;4.30;;;3.92;;
20381;SDS011;10350;51.280;12.400;2023-03-17T14:06:50;4.35;;;4.05;;
20381;SDS011;10350;51.280;12.400;2023-03-17T14:09:24;4.30;;;4.00;;
20381;SDS011;10350;51.280;12.400;2023-03-17T14:11:52;4.97;;;4.47;;
20381;SDS011;10350;51.280;12.400;2023-03-17T14:14:25;6.90;;;4.88;;
20381;SDS011;10350;51.280;12.400;2023-03-17T14:16:58;5.70;;;5.20;;
20381;SDS011;10350;51.280;12.400;2023-03-17T14:19:26;7.40;;;4.78;;
20381;SDS011;10350;51.280;12.400;2023-03-17T14:21:53;6.15;;;5.00;;
20381;SDS011;10350;51.280;12.400;2023-03-17T14:24:23;6.20;;;5.00;;
20381;SDS011;10350;51.280;12.400;2023-03-17T14:26:52;8.15;;;4.93;;
20381;SDS011;10350;51.280;12.400;2023-03-17T14:29:20;5.38;;;4.90;;
20381;SDS011;10350;51.280;12.400;2023-03-17T14:31:51;8.18;;;4.93;;
20381;SDS011;10350;51.280;12.400;2023-03-17T14:34:19;4.95;;;4.45;;
20381;SDS011;10350;51.280;12.400;2023-03-17T14:36:46;8.73;;;4.90;;
20381;SDS011;10350;51.280;12.400;2023-03-17T14:39:22;5.68;;;4.40;;
20381;SDS011;10350;51.280;12.400;2023-03-17T14:41:55;6.10;;;3.93;;
20381;SDS011;10350;51.280;12.400;2023-03-17T14:44:22;7.18;;;4.63;;
20381;SDS011;10350;51.280;12.400;2023-03-17T14:46:48;7.13;;;4.78;;
20381;SDS011;10350;51.280;12.400;2023-03-17T14:51:40;9.40;;;4.20;;
20381;SDS011;10350;51.280;12.400;2023-03-17T14:54:20;5.20;;;4.60;;
20381;SDS011;10350;51.280;12.400;2023-03-17T14:56:50;4.70;;;4.25;;
20381;SDS011;10350;51.280;12.400;2023-03-17T14:59:23;6.72;;;3.95;;
20381;SDS011;10350;51.280;12.400;2023-03-17T15:01:55;5.35;;;4.85;;
20381;SDS011;10350;51.280;12.400;2023-03-17T15:04:26;4.50;;;4.10;;
20381;SDS011;10350;51.280;12.400;2023-03-17T15:06:56;4.80;;;4.18;;
20381;SDS011;10350;51.280;12.400;2023-03-17T15:09:25;5.57;;;4.22;;
20381;SDS011;10350;51.280;12.400;2023-03-17T15:11:55;5.53;;;4.75;;
20381;SDS011;10350;51.280;12.400;2023-03-17T15:14:43;8.23;;;4.40;;
20381;SDS011;10350;51.280;12.400;2023-03-17T15:17:17;6.22;;;4.45;;
20381;SDS011;10350;51.280;12.400;2023-03-17T15:19:48;4.32;;;3.90;;
20381;SDS011;10350;51.280;12.400;2023-03-17T15:24:40;4.78;;;3.72;;
20381;SDS011;10350;51.280;12.400;2023-03-17T15:27:14;6.63;;;4.30;;
20381;SDS011;10350;51.280;12.400;2023-03-17T15:29:41;5.18;;;4.30;;
20381;SDS011;10350;51.280;12.400;2023-03-17T15:32:12;4.85;;;4.00;;
20381;SDS011;10350;51.280;12.400;2023-03-17T15:34:39;5.75;;;4.00;;
20381;SDS011;10350;51.280;12.400;2023-03-17T15:37:12;4.43;;;4.03;;
20381;SDS011;10350;51.280;12.400;2023-03-17T15:39:38;3.97;;;3.58;;
20381;SDS011;10350;51.280;12.400;2023-03-17T15:42:04;4.97;;;4.47;;
20381;SDS011;10350;51.280;12.400;2023-03-17T15:44:30;4.88;;;4.25;;
20381;SDS011;10350;51.280;12.400;2023-03-17T15:46:56;5.82;;;4.80;;
20381;SDS011;10350;51.280;12.400;2023-03-17T15:49:23;8.27;;;5.25;;
20381;SDS011;10350;51.280;12.400;2023-03-17T15:51:49;8.20;;;4.72;;
20381;SDS011;10350;51.280;12.400;2023-03-17T15:54:16;8.95;;;4.75;;
20381;SDS011;10350;51.280;12.400;2023-03-17T15:56:42;7.65;;;4.80;;
20381;SDS011;10350;51.280;12.400;2023-03-17T15:59:08;6.90;;;4.97;;
20381;SDS011;10350;51.280;12.400;2023-03-17T16:01:35;5.18;;;4.05;;
20381;SDS011;10350;51.280;12.400;2023-03-17T16:04:02;6.97;;;4.28;;
20381;SDS011;10350;51.280;12.400;2023-03-17T16:06:28;4.05;;;3.60;;
20381;SDS011;10350;51.280;12.400;2023-03-17T16:08:55;4.55;;;3.40;;
20381;SDS011;10350;51.280;12.400;2023-03-17T16:11:21;5.13;;;4.20;;
20381;SDS011;10350;51.280;12.400;2023-03-17T16:13:57;6.20;;;4.10;;
20381;SDS011;10350;51.280;12.400;2023-03-17T16:16:40;4.72;;;3.95;;
20381;SDS011;10350;51.280;12.400;2023-03-17T16:19:09;5.88;;;4.03;;